Nearby METAR Reports

 

LFLC - Clermont/Aulnat, France
Distance from station: S 1mi, 2km
Updated: Tue, 25-Jun-2019 7:30am CEST
Clear
Clear
 Wind from varies
Wind: varies 1 mph , 2 km/h
Temperature: 68°F , 20°C
Dew Point: 50°F , 10°C
Humidity: 53%
Barometer: 30.03 inHg , 1017 hPa
Summary: Clear
Visibility: greater than 7 miles , 10 km
2019/06/25 05:30 LFLC 250530Z AUTO VRB01KT CAVOK 20/10 Q1017 NOSIG
LFMH - St Etienne/Bouth, France
Distance from station: ESE 57mi, 92km
Updated: Tue, 25-Jun-2019 7:30am CEST
Clear
Clear
 Wind from S
Wind: S 5 mph , 7 km/h
Temperature: 68°F , 20°C
Dew Point: 59°F , 15°C
Humidity: 73%
Barometer: 30.06 inHg , 1018 hPa
Summary: Clear
Visibility: greater than 7 miles , 10 km
2019/06/25 05:30 LFMH 250530Z AUTO 18004KT CAVOK 20/15 Q1018 NOSIG
 
LFLN - Saint Yan, France
Distance from station: NE 60mi, 96km
Updated: Tue, 25-Jun-2019 7:30am CEST
Clear
Clear
 Wind from NW
Wind: NW 3 mph , 6 km/h
Temperature: 63°F , 17°C
Dew Point: 61°F , 16°C
Humidity: 94%
Barometer: 30.03 inHg , 1017 hPa
Summary: Clear
Visibility: greater than 7 miles , 10 km
2019/06/25 05:30 LFLN 250530Z AUTO 32003KT CAVOK 17/16 Q1017
LFLW - Aurillac (aut), France
Distance from station: SSW 72mi, 116km
Updated: Tue, 25-Jun-2019 7:30am CEST
Clear
Clear
 Wind from E
Wind: E 8 mph , 13 km/h
Temperature: 63°F , 17°C
Dew Point: 48°F , 9°C
Humidity: 59%
Barometer: 30.12 inHg , 1020 hPa
Summary: Clear
Visibility: greater than 7 miles , 10 km
2019/06/25 05:30 LFLW 250530Z AUTO 08007KT CAVOK 17/09 Q1020
 
LFQG - Nevers/Fourchamb, France
Distance from station: N 84mi, 135km
Updated: Mon, 24-Jun-2019 8:00pm CEST
NOT Current
Clear
Clear
 Wind from ESE
Wind: ESE 12 mph , 19 km/h
Temperature: 86°F , 30°C
Heat Index: 86°F , 30°C
Dew Point: 61°F , 16°C
Humidity: 43%
Barometer: 29.94 inHg , 1014 hPa
Summary: Clear
Visibility: greater than 7 miles , 10 km
2019/06/24 18:00 LFQG 241800Z AUTO 12010KT CAVOK 30/16 Q1014
LFLY - Lyon/Bron, France
Distance from station: E 86mi, 138km
Updated: Tue, 25-Jun-2019 7:30am CEST
Clear
Clear
 Wind from varies
Wind: varies 2 mph , 4 km/h
Temperature: 73°F , 23°C
Dew Point: 55°F , 13°C
Humidity: 53%
Barometer: 30.06 inHg , 1018 hPa
Summary: Clear
Visibility: greater than 7 miles , 10 km
2019/06/25 05:30 LFLY 250530Z AUTO VRB02KT CAVOK 23/13 Q1018 NOSIG
 
LFOA - Avord (fafb), France
Distance from station: NNW 90mi, 145km
Updated: Tue, 25-Jun-2019 7:30am CEST
Clear
Clear
 Wind from SSE
Wind: SSE 5 mph , 7 km/h
Temperature: 72°F , 22°C
Dew Point: 61°F , 16°C
Humidity: 69%
Barometer: 30 inHg , 1016 hPa
Summary: Clear
Visibility: greater than 7 miles , 10 km
2019/06/25 05:30 LFOA 250530Z AUTO 16004KT CAVOK 22/16 Q1016 NOSIG
LFLL - Lyon/Satolas, France
Distance from station: E 92mi, 147km
Updated: Tue, 25-Jun-2019 7:30am CEST
Clear
Clear
 Wind from SSE
Wind: SSE 13 mph , 20 km/h
Temperature: 75°F , 24°C
Dew Point: 55°F , 13°C
Humidity: 50%
Barometer: 30.09 inHg , 1019 hPa
Summary: Clear
Visibility: greater than 7 miles , 10 km
2019/06/25 05:30 LFLL 250530Z 15011KT CAVOK 24/13 Q1019 NOSIG
 
LFBL - Limoges/Bellegar, France
Distance from station: W 97mi, 155km
Updated: Tue, 25-Jun-2019 7:30am CEST
Clear
Clear
 Wind from SSE
Wind: SSE 5 mph , 7 km/h
Temperature: 68°F , 20°C
Dew Point: 54°F , 12°C
Humidity: 60%
Barometer: 30.03 inHg , 1017 hPa
Summary: Clear
Visibility: greater than 7 miles , 10 km
2019/06/25 05:30 LFBL 250530Z AUTO 15004KT 130V190 CAVOK 20/12 Q1017 NOSIG
LFSL - Brive/Souillac, France
Distance from station: WSW 97mi, 156km
Updated: Tue, 25-Jun-2019 7:30am CEST
Clear
Clear
 Wind from varies
Wind: varies 2 mph , 4 km/h
Temperature: 64°F , 18°C
Dew Point: 55°F , 13°C
Humidity: 73%
Barometer: 30.06 inHg , 1018 hPa
Summary: Clear
Visibility: greater than 7 miles , 10 km
2019/06/25 05:30 LFSL 250530Z AUTO VRB02KT CAVOK 18/13 Q1018 NOSIG
 
LFLX - Chateauroux/Deol, France
Distance from station: NW 101mi, 163km
Updated: Tue, 25-Jun-2019 7:30am CEST
Clear
Clear
 Wind from SSE
Wind: SSE 2 mph , 4 km/h
Temperature: 68°F , 20°C
Dew Point: 63°F , 17°C
Humidity: 83%
Barometer: 30 inHg , 1016 hPa
Summary: Clear
Visibility: greater than 7 miles , 10 km
2019/06/25 05:30 LFLX 250530Z AUTO 15002KT CAVOK 20/17 Q1016 NOSIG
LFCR - Rodez/Marcillac, France
Distance from station: SSW 103mi, 165km
Updated: Tue, 25-Jun-2019 7:30am CEST
Clear
Clear
 Wind from ESE
Wind: ESE 8 mph , 13 km/h
Temperature: 68°F , 20°C
Dew Point: 52°F , 11°C
Humidity: 56%
Barometer: 30.09 inHg , 1019 hPa
Summary: Clear
Visibility: greater than 7 miles , 10 km
2019/06/25 05:30 LFCR 250530Z AUTO 11007KT CAVOK 20/11 Q1019 NOSIG
 
LFLU - Valence-Chabeuil, France
Distance from station: ESE 107mi, 172km
Updated: Mon, 24-Jun-2019 8:00pm CEST
NOT Current
Clear
Clear
 Wind from S
Wind: S 10 mph , 17 km/h
Temperature: 84°F , 29°C
Dew Point: 52°F , 11°C
Humidity: 33%
Barometer: 29.97 inHg , 1015 hPa
Summary: Clear
Visibility: greater than 7 miles , 10 km
2019/06/24 18:00 LFLU 241800Z AUTO 18009KT CAVOK 29/11 Q1015
LFLS - Grenoble/St. Geo, France
Distance from station: ESE 108mi, 174km
Updated: Tue, 25-Jun-2019 7:30am CEST
Clear
Clear
 Wind from E
Wind: E 6 mph , 9 km/h
Temperature: 68°F , 20°C
Dew Point: 57°F , 14°C
Humidity: 69%
Barometer: 30.12 inHg , 1020 hPa
Summary: Clear
Visibility: greater than 7 miles , 10 km
2019/06/25 05:30 LFLS 250530Z AUTO 09005KT CAVOK 20/14 Q1020 NOSIG
 
LFYR - Romorantin/Pruni, France
Distance from station: NW 128mi, 205km
Updated: Tue, 25-Jun-2019 7:30am CEST
Clear
Clear
 Wind from varies
Wind: varies 2 mph , 4 km/h
Temperature: 72°F , 22°C
Dew Point: 66°F , 19°C
Humidity: 83%
Barometer: 29.97 inHg , 1015 hPa
Summary: Clear
Visibility: greater than 7 miles , 10 km
2019/06/25 05:30 LFYR 250530Z AUTO VRB02KT CAVOK 22/19 Q1015 NOSIG
LFLB - Chambery/Aix Bai, France
Distance from station: E 131mi, 210km
Updated: Tue, 25-Jun-2019 7:30am CEST
Clear
Clear
 Wind from SSE
Wind: SSE 1 mph , 2 km/h
Temperature: 68°F , 20°C
Dew Point: 66°F , 19°C
Humidity: 94%
Barometer: 30.12 inHg , 1020 hPa
Summary: Clear
Visibility: greater than 7 miles , 10 km
2019/06/25 05:30 LFLB 250530Z AUTO 15001KT CAVOK 20/19 Q1020 NOSIG
 
LFSD - Dijon/Longvic(Fa, France
Distance from station: NE 136mi, 219km
Updated: Tue, 25-Jun-2019 7:30am CEST
Clear
Clear
 Wind from calm
Wind: Calm
Temperature: 70°F , 21°C
Dew Point: 64°F , 18°C
Humidity: 83%
Barometer: 30.06 inHg , 1018 hPa
Summary: Clear
Visibility: greater than 7 miles , 10 km
2019/06/25 05:30 LFSD 250530Z AUTO 00000KT CAVOK 21/18 Q1018
LFGJ - Dole Tavaux, France
Distance from station: NE 139mi, 223km
Updated: Tue, 25-Jun-2019 2:00am CEST
NOT Current
Clear
Clear
 Wind from E
Wind: E 5 mph , 7 km/h
Temperature: 68°F , 20°C
Dew Point: 66°F , 19°C
Humidity: 94%
Barometer: 30 inHg , 1016 hPa
Summary: Clear
Visibility: greater than 7 miles , 10 km
2019/06/25 00:00 LFGJ 250000Z AUTO 08004KT CAVOK 20/19 Q1016
 
LFLP - Annecy/Meythet, France
Distance from station: E 141mi, 226km
Updated: Tue, 25-Jun-2019 7:30am CEST
Clear
Clear
 Wind from varies
Wind: varies 1 mph , 2 km/h
Temperature: 66°F , 19°C
Dew Point: 63°F , 17°C
Humidity: 88%
Barometer: 30.15 inHg , 1021 hPa
Summary: Clear
Visibility: greater than 7 miles , 10 km
2019/06/25 05:30 LFLP 250530Z AUTO VRB01KT CAVOK 19/17 Q1021 NOSIG
LFBU - Brie Champniers, France
Distance from station: W 142mi, 229km
Updated: Tue, 25-Jun-2019 7:30am CEST
Clear
Clear
 Wind from SE
Wind: SE 6 mph , 9 km/h
Temperature: 68°F , 20°C
Dew Point: 63°F , 17°C
Humidity: 83%
Barometer: 30 inHg , 1016 hPa
Summary: Clear
Visibility: greater than 7 miles , 10 km
2019/06/25 05:30 LFBU 250530Z AUTO 13005KT 100V180 CAVOK 20/17 Q1016

Metar display script from Saratoga-Weather.org